18. August 2022

Uhrzeit Code Wetter Temp. Sichtweite Wolkendecke Wind METAR/SPECI
1:00 pm
V
77 °F 9 mi - 130° 130° 8 - 15 kt METAR CYBW 181900Z AUTO 13008G15KT 9SM CLR 25/11 A3018 RMK SLP211 DENSITY ALT 5700FT
12:00 pm
V
73 °F 9 mi - 120° 120° 6 kt METAR CYBW 181800Z AUTO 12006KT 100V160 9SM CLR 23/11 A3019 RMK SLP213 DENSITY ALT 5500FT
11:00 am
V
72 °F 9 mi - 140° 140° 10 kt METAR CYBW 181700Z AUTO 14010KT 9SM CLR 22/11 A3020 RMK SLP218 DENSITY ALT 5400FT
10:00 am
V
66 °F 9 mi - Var Var 2 kt METAR CYBW 181600Z AUTO VRB02KT 9SM CLR 19/12 A3021 RMK SLP225 DENSITY ALT 5000FT
9:00 am
V
59 °F 9 mi - Var Var 2 kt METAR CYBW 181500Z AUTO VRB02KT 9SM CLR 15/11 A3022 RMK SLP232 DENSITY ALT 4500FT
8:00 am
V
52 °F 9 mi - 310° 310° 5 kt METAR CYBW 181400Z AUTO 31005KT 9SM CLR 11/09 A3023 RMK SLP237 DENSITY ALT 4000FT
7:00 am
V
46 °F 9 mi - 310° 310° 4 kt METAR CYBW 181300Z AUTO 31004KT 9SM CLR 08/08 A3024 RMK ICE MISG SLP238
6:00 am
V
46 °F 9 mi - 320° 320° 5 kt METAR CYBW 181200Z AUTO 32005KT 9SM CLR 08/07 A3024 RMK SLP239
5:00 am
V
48 °F 9 mi - 340° 340° 3 kt METAR CYBW 181100Z AUTO 34003KT 9SM CLR 09/09 A3025 RMK SLP241
4:00 am
V
50 °F 9 mi - Var 000° 0 kt METAR CYBW 181000Z AUTO 00000KT 9SM CLR 10/09 A3026 RMK SLP242
3:00 am
V
52 °F 9 mi - 310° 310° 3 kt METAR CYBW 180900Z AUTO 31003KT 9SM CLR 11/09 A3027 RMK SLP244 DENSITY ALT 4000FT
2:00 am
V
54 °F 9 mi - 310° 310° 3 kt METAR CYBW 180800Z AUTO 31003KT 9SM CLR 12/10 A3027 RMK SLP247 DENSITY ALT 4100FT
1:00 am
V
55 °F 9 mi - 300° 300° 2 kt METAR CYBW 180700Z AUTO 30002KT 9SM CLR 13/10 A3027 RMK SLP245 DENSITY ALT 4300FT
12:00 am
V
61 °F 9 mi - 140° 140° 3 kt METAR CYBW 180600Z AUTO 14003KT 9SM CLR 16/10 A3027 RMK SLP242 DENSITY ALT 4700FT

17. August 2022

Uhrzeit Code Wetter Temp. Sichtweite Wolkendecke Wind METAR/SPECI
11:00 pm
V
61 °F 9 mi - 110° 110° 6 kt METAR CYBW 180500Z AUTO 11006KT 9SM CLR 16/10 A3027 RMK SLP243 DENSITY ALT 4700FT
10:00 pm
V
63 °F 9 mi - 110° 110° 8 kt METAR CYBW 180400Z AUTO 11008KT 9SM CLR 17/10 A3025 RMK SLP239 DENSITY ALT 4800FT
9:00 pm
V
66 °F 9 mi - 100° 100° 8 kt METAR CYBW 180300Z AUTO 10008KT 9SM CLR 19/10 A3024 RMK SLP236 DENSITY ALT 5000FT
8:38 pm
V
68 °F 6 mi - 090° 090° 7 kt METAR CYBW 180238Z AUTO 09007KT 6SM HZ CLR 20/11 A3023 RMK SLP226 DENSITY ALT 5100FT
8:32 pm
V
70 °F 5 mi - 100° 100° 8 kt METAR CYBW 180232Z AUTO 10008KT 5SM HZ CLR 21/11 A3023 RMK SLP225 DENSITY ALT 5200FT
8:00 pm
V
73 °F 9 mi - 100° 100° 6 kt METAR CYBW 180200Z AUTO 10006KT 9SM CLR 23/12 A3023 RMK SLP230 DENSITY ALT 5400FT
7:00 pm
V
77 °F 9 mi - 090° 090° 8 kt METAR CYBW 180100Z AUTO 09008KT 9SM CLR 25/10 A3023 RMK SLP229 DENSITY ALT 5700FT
6:00 pm
V
79 °F 9 mi - 070° 070° 8 kt METAR CYBW 180000Z AUTO 07008KT 9SM CLR 26/10 A3024 RMK SLP235 DENSITY ALT 5700FT
5:00 pm
V
79 °F 9 mi - 100° 100° 7 kt METAR CYBW 172300Z AUTO 10007KT 060V140 9SM CLR 26/10 A3026 RMK SLP239 DENSITY ALT 5700FT
4:00 pm
V
79 °F 9 mi - 120° 120° 6 - 15 kt METAR CYBW 172200Z AUTO 12006G15KT 070V160 9SM CLR 26/10 A3026 RMK SLP241 DENSITY ALT 5700FT
3:00 pm
V
79 °F 9 mi - 100° 100° 7 kt METAR CYBW 172100Z AUTO 10007KT 9SM CLR 26/11 A3027 RMK SLP243 DENSITY ALT 5700FT
2:00 pm
V
75 °F 9 mi - 090° 090° 4 - 16 kt METAR CYBW 172000Z AUTO 09004G16KT 040V130 9SM CLR 24/10 A3029 RMK SLP252 DENSITY ALT 5500FT
1:00 pm
V
75 °F 9 mi - 080° 080° 6 kt METAR CYBW 171900Z AUTO 08006KT 050V170 9SM FEW049 24/11 A3029 RMK SLP251 DENSITY ALT 5500FT
12:00 pm
V
73 °F 9 mi - 130° 130° 6 kt METAR CYBW 171800Z AUTO 13006KT 020V140 9SM CLR 23/12 A3030 RMK SLP252 DENSITY ALT 5300FT
11:00 am
V
70 °F 9 mi - 100° 100° 5 kt METAR CYBW 171700Z AUTO 10005KT 040V120 9SM CLR 21/12 A3030 RMK SLP255 DENSITY ALT 5100FT
10:00 am
V
66 °F 9 mi - Var Var 2 kt METAR CYBW 171600Z AUTO VRB02KT 9SM CLR 19/13 A3031 RMK SLP257 DENSITY ALT 4900FT
9:00 am
V
63 °F 9 mi - 310° 310° 6 kt METAR CYBW 171500Z AUTO 31006KT 9SM CLR 17/13 A3030 RMK SLP254 DENSITY ALT 4700FT
8:00 am
V
59 °F 9 mi - 310° 310° 7 kt METAR CYBW 171400Z AUTO 31007KT 9SM CLR 15/12 A3030 RMK SLP254 DENSITY ALT 4400FT
7:00 am
V
54 °F 9 mi - 320° 320° 6 kt METAR CYBW 171300Z AUTO 32006KT 9SM FEW060 12/11 A3029 RMK SLP250 DENSITY ALT 4100FT
6:00 am
V
50 °F 9 mi - 290° 290° 4 kt METAR CYBW 171200Z AUTO 29004KT 9SM SCT055 10/09 A3027 RMK SLP247
5:00 am
V
52 °F 9 mi - 310° 310° 5 kt METAR CYBW 171100Z AUTO 31005KT 9SM CLR 11/11 A3026 RMK SLP237 DENSITY ALT 4100FT
4:00 am
V
54 °F 9 mi - 310° 310° 6 kt METAR CYBW 171000Z AUTO 31006KT 9SM CLR 12/11 A3025 RMK SLP232 DENSITY ALT 4100FT
3:00 am
V
55 °F 9 mi 6.000 ft 320° 320° 6 kt METAR CYBW 170900Z AUTO 32006KT 9SM BKN060 13/11 A3024 RMK SLP225 DENSITY ALT 4300FT
2:00 am
V
54 °F 9 mi - 340° 340° 5 kt METAR CYBW 170800Z AUTO 34005KT 290V360 9SM CLR 12/11 A3023 RMK SLP225 DENSITY ALT 4200FT
1:00 am
V
55 °F 9 mi - Var 000° 0 kt METAR CYBW 170700Z AUTO 00000KT 9SM CLR 13/11 A3023 RMK SLP223 DENSITY ALT 4300FT
12:00 am
V
61 °F 9 mi - 310° 310° 7 kt METAR CYBW 170600Z AUTO 31007KT 9SM CLR 16/12 A3021 RMK SLP216 DENSITY ALT 4600FT

16. August 2022

Uhrzeit Code Wetter Temp. Sichtweite Wolkendecke Wind METAR/SPECI
11:00 pm
V
63 °F 9 mi 11.000 ft 340° 340° 14 - 23 kt METAR CYBW 170500Z AUTO 34014G23KT 9SM BKN110 OVC140 17/13 A3018 RMK SLP210 DENSITY ALT 4800FT
10:42 pm
V
63 °F 9 mi 12.000 ft 340° 340° 12 kt METAR CYBW 170442Z AUTO 34012KT 9SM SCT100 BKN120 OVC150 17/13 A3018 RMK SLP217 DENSITY ALT 4800FT
10:10 pm
V
64 °F 9 mi 11.000 ft 030° 030° 20 - 28 kt METAR CYBW 170410Z AUTO 03020G28KT 340V050 9SM -RA BKN110 OVC140 18/13 A3014 RMK PRESFR SLP200 DENSITY ALT 5000FT
10:00 pm
V
66 °F 9 mi 11.000 ft 350° 350° 15 - 21 kt METAR CYBW 170400Z AUTO 35015G21KT 9SM BKN110 BKN130 19/13 A3017 RMK PRESRR SLP208 DENSITY ALT 5000FT
9:43 pm
V
66 °F 9 mi 11.000 ft 360° 360° 18 - 28 kt METAR CYBW 170343Z AUTO 36018G28KT 9SM BKN110 BKN130 19/13 A3015 RMK LTNG DIST NE E PRESRR SLP200 DENSITY ALT 5100FT
9:26 pm
V
68 °F 9 mi 11.000 ft 350° 350° 14 - 23 kt METAR CYBW 170326Z AUTO 35014G23KT 9SM VCTS BKN110 OVC130 20/14 A3013 RMK LTNG DIST NE SLP191 DENSITY ALT 5200FT
9:17 pm
V
70 °F 9 mi 11.000 ft 010° 010° 10 - 23 kt METAR CYBW 170317Z AUTO 01010G23KT 340V040 9SM BKN110 BKN140 BKN170 21/14 A3012 RMK SLP185 DENSITY ALT 5300FT
9:00 pm
V
70 °F 9 mi 16.000 ft 340° 340° 9 kt METAR CYBW 170300Z AUTO 34009KT 9SM VCTS SCT110 OVC160 21/15 A3011 RMK PRESRR SLP191 DENSITY ALT 5400FT
8:47 pm
V
72 °F 9 mi 16.000 ft 350° 350° 7 kt METAR CYBW 170247Z AUTO 35007KT 9SM VCTS OVC160 22/14 A3010 RMK SLP174 DENSITY ALT 5500FT
8:00 pm
V
73 °F 9 mi 15.000 ft 360° 360° 8 kt METAR CYBW 170200Z AUTO 36008KT 9SM OVC150 23/13 A3007 RMK SLP181 DENSITY ALT 5600FT
7:00 pm
V
77 °F 9 mi - 040° 040° 8 kt METAR CYBW 170100Z AUTO 04008KT 9SM SCT160 25/11 A3006 RMK SLP176 DENSITY ALT 5900FT
6:00 pm
V
79 °F 9 mi 11.000 ft 040° 040° 7 kt METAR CYBW 170000Z AUTO 04007KT 9SM OVC110 26/08 A3005 RMK SLP173 DENSITY ALT 6000FT
5:00 pm
V
82 °F 9 mi 17.000 ft 210° 210° 5 kt METAR CYBW 162300Z AUTO 21005KT 180V250 9SM SCT120 BKN170 28/07 A3004 RMK SLP165 DENSITY ALT 6200FT
4:00 pm
V
82 °F 9 mi 17.000 ft 310° 310° 4 kt METAR CYBW 162200Z AUTO 31004KT 260V350 9SM SCT120 BKN170 28/06 A3004 RMK SLP165 DENSITY ALT 6200FT
3:13 pm
V
86 °F 9 mi 19.000 ft Var Var 11 kt METAR CYBW 162113Z AUTO VRB11KT 9SM SCT100 SCT120 BKN190 30/05 A3004 RMK SLP131 DENSITY ALT 6400FT
3:00 pm
V
84 °F 7 mi - Var 000° 0 kt METAR CYBW 162100Z AUTO 00000KT 7SM SCT190 29/04 A3004 RMK SLP163 DENSITY ALT 6300FT
2:00 pm
V
82 °F 9 mi - 040° 040° 6 kt METAR CYBW 162000Z AUTO 04006KT 340V060 9SM FEW190 28/05 A3005 RMK SLP165 DENSITY ALT 6200FT
1:00 pm
V
82 °F 9 mi - Var Var 3 kt METAR CYBW 161900Z AUTO VRB03KT 9SM CLR 28/06 A3006 RMK SLP168 DENSITY ALT 6200FT
12:00 pm
V
79 °F 9 mi - Var Var 2 kt METAR CYBW 161800Z AUTO VRB02KT 9SM CLR 26/09 A3007 RMK SLP172 DENSITY ALT 6000FT
11:00 am
V
73 °F 9 mi - Var 000° 0 kt METAR CYBW 161700Z AUTO 00000KT 9SM CLR 23/10 A3008 RMK SLP178 DENSITY ALT 5600FT
10:00 am
V
66 °F 9 mi - 350° 350° 4 kt METAR CYBW 161600Z AUTO 35004KT 9SM CLR 19/10 A3009 RMK SLP186 DENSITY ALT 5200FT
9:00 am
V
59 °F 9 mi - 320° 320° 7 kt METAR CYBW 161500Z AUTO 32007KT 9SM CLR 15/10 A3010 RMK SLP190 DENSITY ALT 4700FT
Ältere Daten

Wir und Dritte verfolgen dein Internetverhalten auf unserer Website mit Cookies. Wenn du fortfährst, gehen wir davon aus, dass du mit unserer Cookie-Richtlinie einverstanden bist. Mehr erfahren